sensor_id;sensor_type;location;lat;lon;timestamp;temperature;humidity
12291;DHT22;6208;48.956;9.076;2023-02-04T00:00:59;8.90;99.90
12291;DHT22;6208;48.956;9.076;2023-02-04T00:03:43;8.00;99.90
12291;DHT22;6208;48.956;9.076;2023-02-04T00:06:27;7.80;99.90
12291;DHT22;6208;48.956;9.076;2023-02-04T00:09:11;7.60;99.90
12291;DHT22;6208;48.956;9.076;2023-02-04T00:11:55;7.70;99.90
12291;DHT22;6208;48.956;9.076;2023-02-04T00:14:39;7.30;99.90
12291;DHT22;6208;48.956;9.076;2023-02-04T00:17:24;7.40;99.90
12291;DHT22;6208;48.956;9.076;2023-02-04T00:20:08;7.70;99.90
12291;DHT22;6208;48.956;9.076;2023-02-04T00:22:52;7.70;99.90
12291;DHT22;6208;48.956;9.076;2023-02-04T00:25:36;7.80;99.90
12291;DHT22;6208;48.956;9.076;2023-02-04T00:28:21;8.10;99.90
12291;DHT22;6208;48.956;9.076;2023-02-04T00:31:05;8.10;99.90
12291;DHT22;6208;48.956;9.076;2023-02-04T00:33:49;8.90;99.90
12291;DHT22;6208;48.956;9.076;2023-02-04T00:36:33;8.10;99.90
12291;DHT22;6208;48.956;9.076;2023-02-04T00:39:17;8.00;99.90
12291;DHT22;6208;48.956;9.076;2023-02-04T00:42:01;8.00;99.90
12291;DHT22;6208;48.956;9.076;2023-02-04T00:44:46;8.00;99.90
12291;DHT22;6208;48.956;9.076;2023-02-04T00:47:30;8.40;99.90
12291;DHT22;6208;48.956;9.076;2023-02-04T00:50:15;8.10;99.90
12291;DHT22;6208;48.956;9.076;2023-02-04T00:52:59;8.10;99.90
12291;DHT22;6208;48.956;9.076;2023-02-04T00:55:45;8.20;99.90
12291;DHT22;6208;48.956;9.076;2023-02-04T00:58:32;8.20;99.90
12291;DHT22;6208;48.956;9.076;2023-02-04T01:01:16;8.50;99.90
12291;DHT22;6208;48.956;9.076;2023-02-04T01:04:00;9.00;99.90
12291;DHT22;6208;48.956;9.076;2023-02-04T01:06:47;8.30;99.90
12291;DHT22;6208;48.956;9.076;2023-02-04T01:09:31;8.30;99.90
12291;DHT22;6208;48.956;9.076;2023-02-04T01:12:15;8.30;99.90
12291;DHT22;6208;48.956;9.076;2023-02-04T01:14:59;8.10;99.90
12291;DHT22;6208;48.956;9.076;2023-02-04T01:17:43;8.30;99.90
12291;DHT22;6208;48.956;9.076;2023-02-04T01:20:27;8.10;99.90
12291;DHT22;6208;48.956;9.076;2023-02-04T01:23:11;8.00;99.90
12291;DHT22;6208;48.956;9.076;2023-02-04T01:25:56;8.10;99.90
12291;DHT22;6208;48.956;9.076;2023-02-04T01:28:40;8.20;99.90
12291;DHT22;6208;48.956;9.076;2023-02-04T01:31:24;8.10;99.90
12291;DHT22;6208;48.956;9.076;2023-02-04T01:34:08;8.20;99.90
12291;DHT22;6208;48.956;9.076;2023-02-04T01:36:52;8.10;99.90
12291;DHT22;6208;48.956;9.076;2023-02-04T01:39:39;8.80;99.90
12291;DHT22;6208;48.956;9.076;2023-02-04T01:42:23;8.10;99.90
12291;DHT22;6208;48.956;9.076;2023-02-04T01:45:08;8.10;99.90
12291;DHT22;6208;48.956;9.076;2023-02-04T01:47:52;8.10;99.90
12291;DHT22;6208;48.956;9.076;2023-02-04T01:50:36;8.20;99.90
12291;DHT22;6208;48.956;9.076;2023-02-04T01:53:23;8.20;99.90
12291;DHT22;6208;48.956;9.076;2023-02-04T01:56:18;8.30;99.90
12291;DHT22;6208;48.956;9.076;2023-02-04T01:59:10;8.10;99.90
12291;DHT22;6208;48.956;9.076;2023-02-04T02:01:55;8.20;99.90
12291;DHT22;6208;48.956;9.076;2023-02-04T02:04:39;8.30;99.90
12291;DHT22;6208;48.956;9.076;2023-02-04T02:07:23;8.10;99.90
12291;DHT22;6208;48.956;9.076;2023-02-04T02:10:09;8.20;99.90
12291;DHT22;6208;48.956;9.076;2023-02-04T02:12:54;8.10;99.90
12291;DHT22;6208;48.956;9.076;2023-02-04T02:15:39;9.20;99.90
12291;DHT22;6208;48.956;9.076;2023-02-04T02:18:23;8.10;99.90
12291;DHT22;6208;48.956;9.076;2023-02-04T02:21:08;8.00;99.90
12291;DHT22;6208;48.956;9.076;2023-02-04T02:23:54;8.20;99.90
12291;DHT22;6208;48.956;9.076;2023-02-04T02:26:43;8.30;99.90
12291;DHT22;6208;48.956;9.076;2023-02-04T02:29:27;8.30;99.90
12291;DHT22;6208;48.956;9.076;2023-02-04T02:32:13;8.30;99.90
12291;DHT22;6208;48.956;9.076;2023-02-04T02:34:57;8.30;99.90
12291;DHT22;6208;48.956;9.076;2023-02-04T02:37:42;8.50;99.90
12291;DHT22;6208;48.956;9.076;2023-02-04T02:40:26;8.60;99.90
12291;DHT22;6208;48.956;9.076;2023-02-04T02:43:17;8.10;99.90
12291;DHT22;6208;48.956;9.076;2023-02-04T02:46:02;8.10;99.90
12291;DHT22;6208;48.956;9.076;2023-02-04T02:48:47;8.10;99.90
12291;DHT22;6208;48.956;9.076;2023-02-04T02:51:31;8.10;99.90
12291;DHT22;6208;48.956;9.076;2023-02-04T02:54:21;8.20;99.90
12291;DHT22;6208;48.956;9.076;2023-02-04T02:57:16;8.10;99.90
12291;DHT22;6208;48.956;9.076;2023-02-04T03:00:00;8.00;99.90
12291;DHT22;6208;48.956;9.076;2023-02-04T03:05:42;7.90;99.90
12291;DHT22;6208;48.956;9.076;2023-02-04T03:08:31;7.80;99.90
12291;DHT22;6208;48.956;9.076;2023-02-04T03:11:15;8.10;99.90
12291;DHT22;6208;48.956;9.076;2023-02-04T03:13:59;8.20;99.90
12291;DHT22;6208;48.956;9.076;2023-02-04T03:16:45;8.10;99.90
12291;DHT22;6208;48.956;9.076;2023-02-04T03:19:30;8.00;99.90
12291;DHT22;6208;48.956;9.076;2023-02-04T03:22:15;8.00;99.90
12291;DHT22;6208;48.956;9.076;2023-02-04T03:24:59;7.90;99.90
12291;DHT22;6208;48.956;9.076;2023-02-04T03:27:43;7.90;99.90
12291;DHT22;6208;48.956;9.076;2023-02-04T03:30:27;8.00;99.90
12291;DHT22;6208;48.956;9.076;2023-02-04T03:33:11;8.00;99.90
12291;DHT22;6208;48.956;9.076;2023-02-04T03:35:57;7.90;99.90
12291;DHT22;6208;48.956;9.076;2023-02-04T03:38:41;8.10;99.90
12291;DHT22;6208;48.956;9.076;2023-02-04T03:41:25;8.00;99.90
12291;DHT22;6208;48.956;9.076;2023-02-04T03:44:09;8.30;99.90
12291;DHT22;6208;48.956;9.076;2023-02-04T03:46:53;7.90;99.90
12291;DHT22;6208;48.956;9.076;2023-02-04T03:49:38;7.70;99.90
12291;DHT22;6208;48.956;9.076;2023-02-04T03:52:22;6.90;99.90
12291;DHT22;6208;48.956;9.076;2023-02-04T03:55:06;8.10;99.90
12291;DHT22;6208;48.956;9.076;2023-02-04T03:57:51;7.40;99.90
12291;DHT22;6208;48.956;9.076;2023-02-04T04:00:36;7.30;99.90
12291;DHT22;6208;48.956;9.076;2023-02-04T04:03:20;7.30;99.90
12291;DHT22;6208;48.956;9.076;2023-02-04T04:06:04;7.30;99.90
12291;DHT22;6208;48.956;9.076;2023-02-04T04:08:51;7.20;99.90
12291;DHT22;6208;48.956;9.076;2023-02-04T04:11:35;7.90;99.90
12291;DHT22;6208;48.956;9.076;2023-02-04T04:14:19;7.30;99.90
12291;DHT22;6208;48.956;9.076;2023-02-04T04:17:03;7.10;99.90
12291;DHT22;6208;48.956;9.076;2023-02-04T04:19:48;7.20;99.90
12291;DHT22;6208;48.956;9.076;2023-02-04T04:22:32;7.40;99.90
12291;DHT22;6208;48.956;9.076;2023-02-04T04:25:16;7.40;99.90
12291;DHT22;6208;48.956;9.076;2023-02-04T04:28:01;7.40;99.90
12291;DHT22;6208;48.956;9.076;2023-02-04T04:30:45;8.50;99.90
12291;DHT22;6208;48.956;9.076;2023-02-04T04:33:29;7.10;99.90
12291;DHT22;6208;48.956;9.076;2023-02-04T04:36:13;8.10;99.90
12291;DHT22;6208;48.956;9.076;2023-02-04T04:38:57;7.20;99.90
12291;DHT22;6208;48.956;9.076;2023-02-04T04:41:43;7.20;99.90
12291;DHT22;6208;48.956;9.076;2023-02-04T04:44:27;7.40;99.90
12291;DHT22;6208;48.956;9.076;2023-02-04T04:47:11;7.40;99.90
12291;DHT22;6208;48.956;9.076;2023-02-04T04:49:55;7.30;99.90
12291;DHT22;6208;48.956;9.076;2023-02-04T04:52:39;7.20;99.90
12291;DHT22;6208;48.956;9.076;2023-02-04T04:55:23;7.10;99.90
12291;DHT22;6208;48.956;9.076;2023-02-04T04:58:07;7.90;99.90
12291;DHT22;6208;48.956;9.076;2023-02-04T05:00:51;7.50;99.90
12291;DHT22;6208;48.956;9.076;2023-02-04T05:03:36;7.40;99.90
12291;DHT22;6208;48.956;9.076;2023-02-04T05:06:20;7.00;99.90
12291;DHT22;6208;48.956;9.076;2023-02-04T05:09:08;6.90;99.90
12291;DHT22;6208;48.956;9.076;2023-02-04T05:11:52;7.20;99.90
12291;DHT22;6208;48.956;9.076;2023-02-04T05:14:36;7.30;99.90
12291;DHT22;6208;48.956;9.076;2023-02-04T05:17:21;7.50;99.90
12291;DHT22;6208;48.956;9.076;2023-02-04T05:20:05;7.70;99.90
12291;DHT22;6208;48.956;9.076;2023-02-04T05:22:49;7.90;99.90
12291;DHT22;6208;48.956;9.076;2023-02-04T05:25:34;8.70;99.90
12291;DHT22;6208;48.956;9.076;2023-02-04T05:28:18;7.80;99.90
12291;DHT22;6208;48.956;9.076;2023-02-04T05:31:02;8.20;99.90
12291;DHT22;6208;48.956;9.076;2023-02-04T05:33:46;8.20;99.90
12291;DHT22;6208;48.956;9.076;2023-02-04T05:36:30;8.00;99.90
12291;DHT22;6208;48.956;9.076;2023-02-04T05:39:14;7.70;99.90
12291;DHT22;6208;48.956;9.076;2023-02-04T05:41:58;8.70;99.90
12291;DHT22;6208;48.956;9.076;2023-02-04T05:44:42;7.10;99.90
12291;DHT22;6208;48.956;9.076;2023-02-04T05:47:26;7.40;99.90
12291;DHT22;6208;48.956;9.076;2023-02-04T05:50:10;7.60;99.90
12291;DHT22;6208;48.956;9.076;2023-02-04T05:52:55;7.50;99.90
12291;DHT22;6208;48.956;9.076;2023-02-04T05:55:39;7.50;99.90
12291;DHT22;6208;48.956;9.076;2023-02-04T05:58:23;7.60;99.90
12291;DHT22;6208;48.956;9.076;2023-02-04T06:01:07;7.70;99.90
12291;DHT22;6208;48.956;9.076;2023-02-04T06:03:51;7.70;99.90
12291;DHT22;6208;48.956;9.076;2023-02-04T06:06:36;7.80;99.90
12291;DHT22;6208;48.956;9.076;2023-02-04T06:09:20;7.80;99.90
12291;DHT22;6208;48.956;9.076;2023-02-04T06:12:04;7.90;99.90
12291;DHT22;6208;48.956;9.076;2023-02-04T06:14:49;7.80;99.90
12291;DHT22;6208;48.956;9.076;2023-02-04T06:17:33;7.70;99.90
12291;DHT22;6208;48.956;9.076;2023-02-04T06:20:17;7.60;99.90
12291;DHT22;6208;48.956;9.076;2023-02-04T06:23:01;7.50;99.90
12291;DHT22;6208;48.956;9.076;2023-02-04T06:25:45;7.60;99.90
12291;DHT22;6208;48.956;9.076;2023-02-04T06:28:31;7.70;99.90
12291;DHT22;6208;48.956;9.076;2023-02-04T06:31:15;7.60;99.90
12291;DHT22;6208;48.956;9.076;2023-02-04T06:33:59;7.60;99.90
12291;DHT22;6208;48.956;9.076;2023-02-04T06:36:43;7.90;99.90
12291;DHT22;6208;48.956;9.076;2023-02-04T06:39:27;7.60;99.90
12291;DHT22;6208;48.956;9.076;2023-02-04T06:42:11;7.50;99.90
12291;DHT22;6208;48.956;9.076;2023-02-04T06:44:55;7.40;99.90
12291;DHT22;6208;48.956;9.076;2023-02-04T06:47:39;7.40;99.90
12291;DHT22;6208;48.956;9.076;2023-02-04T06:50:24;7.40;99.90
12291;DHT22;6208;48.956;9.076;2023-02-04T06:53:08;7.50;99.90
12291;DHT22;6208;48.956;9.076;2023-02-04T06:55:52;7.60;99.90
12291;DHT22;6208;48.956;9.076;2023-02-04T06:58:37;7.60;99.90
12291;DHT22;6208;48.956;9.076;2023-02-04T07:01:21;7.60;99.90
12291;DHT22;6208;48.956;9.076;2023-02-04T07:04:05;7.70;99.90
12291;DHT22;6208;48.956;9.076;2023-02-04T07:06:49;7.70;99.90
12291;DHT22;6208;48.956;9.076;2023-02-04T07:09:33;7.60;99.90
12291;DHT22;6208;48.956;9.076;2023-02-04T07:12:17;8.70;99.90
12291;DHT22;6208;48.956;9.076;2023-02-04T07:15:01;7.50;99.90
12291;DHT22;6208;48.956;9.076;2023-02-04T07:17:45;7.40;99.90
12291;DHT22;6208;48.956;9.076;2023-02-04T07:20:29;7.30;99.90
12291;DHT22;6208;48.956;9.076;2023-02-04T07:23:13;7.60;99.90
12291;DHT22;6208;48.956;9.076;2023-02-04T07:25:57;7.50;99.90
12291;DHT22;6208;48.956;9.076;2023-02-04T07:28:42;7.60;99.90
12291;DHT22;6208;48.956;9.076;2023-02-04T07:31:27;7.60;99.90
12291;DHT22;6208;48.956;9.076;2023-02-04T07:34:12;7.60;99.90
12291;DHT22;6208;48.956;9.076;2023-02-04T07:36:56;7.80;99.90
12291;DHT22;6208;48.956;9.076;2023-02-04T07:39:40;8.00;99.90
12291;DHT22;6208;48.956;9.076;2023-02-04T07:42:24;7.90;99.90
12291;DHT22;6208;48.956;9.076;2023-02-04T07:45:09;7.60;99.90
12291;DHT22;6208;48.956;9.076;2023-02-04T07:47:53;7.80;99.90
12291;DHT22;6208;48.956;9.076;2023-02-04T07:50:37;8.20;99.90
12291;DHT22;6208;48.956;9.076;2023-02-04T07:53:21;7.80;99.90
12291;DHT22;6208;48.956;9.076;2023-02-04T07:56:06;7.60;99.90
12291;DHT22;6208;48.956;9.076;2023-02-04T07:58:50;9.00;99.90
12291;DHT22;6208;48.956;9.076;2023-02-04T08:01:35;7.20;99.90
12291;DHT22;6208;48.956;9.076;2023-02-04T08:04:19;7.30;99.90
12291;DHT22;6208;48.956;9.076;2023-02-04T08:07:03;7.10;99.90
12291;DHT22;6208;48.956;9.076;2023-02-04T08:09:47;7.10;99.90
12291;DHT22;6208;48.956;9.076;2023-02-04T08:12:31;7.50;99.90
12291;DHT22;6208;48.956;9.076;2023-02-04T08:15:16;7.70;99.90
12291;DHT22;6208;48.956;9.076;2023-02-04T08:18:00;7.90;99.90
12291;DHT22;6208;48.956;9.076;2023-02-04T08:20:44;8.00;99.90
12291;DHT22;6208;48.956;9.076;2023-02-04T08:23:28;8.00;99.90
12291;DHT22;6208;48.956;9.076;2023-02-04T08:26:12;8.10;99.90
12291;DHT22;6208;48.956;9.076;2023-02-04T08:28:56;7.70;99.90
12291;DHT22;6208;48.956;9.076;2023-02-04T08:31:40;8.50;99.90
12291;DHT22;6208;48.956;9.076;2023-02-04T08:34:24;7.70;99.90
12291;DHT22;6208;48.956;9.076;2023-02-04T08:37:08;7.70;99.90
12291;DHT22;6208;48.956;9.076;2023-02-04T08:39:53;7.50;99.90
12291;DHT22;6208;48.956;9.076;2023-02-04T08:42:37;7.50;99.90
12291;DHT22;6208;48.956;9.076;2023-02-04T08:45:21;7.40;99.90
12291;DHT22;6208;48.956;9.076;2023-02-04T08:48:05;7.50;99.90
12291;DHT22;6208;48.956;9.076;2023-02-04T08:50:50;7.70;99.90
12291;DHT22;6208;48.956;9.076;2023-02-04T08:53:34;7.70;99.90
12291;DHT22;6208;48.956;9.076;2023-02-04T08:56:18;7.80;99.90
12291;DHT22;6208;48.956;9.076;2023-02-04T08:59:03;8.00;99.90
12291;DHT22;6208;48.956;9.076;2023-02-04T09:01:47;8.00;99.90
12291;DHT22;6208;48.956;9.076;2023-02-04T09:04:32;8.70;99.90
12291;DHT22;6208;48.956;9.076;2023-02-04T09:07:16;8.10;99.90
12291;DHT22;6208;48.956;9.076;2023-02-04T09:10:01;7.60;99.90
12291;DHT22;6208;48.956;9.076;2023-02-04T09:12:45;8.10;99.90
12291;DHT22;6208;48.956;9.076;2023-02-04T09:15:29;8.60;99.90
12291;DHT22;6208;48.956;9.076;2023-02-04T09:18:13;8.00;99.90
12291;DHT22;6208;48.956;9.076;2023-02-04T09:21:02;8.00;99.90
12291;DHT22;6208;48.956;9.076;2023-02-04T09:23:46;8.00;99.90
12291;DHT22;6208;48.956;9.076;2023-02-04T09:26:31;8.20;99.90
12291;DHT22;6208;48.956;9.076;2023-02-04T09:29:15;8.30;99.90
12291;DHT22;6208;48.956;9.076;2023-02-04T09:31:59;8.40;99.90
12291;DHT22;6208;48.956;9.076;2023-02-04T09:34:43;8.20;99.90
12291;DHT22;6208;48.956;9.076;2023-02-04T09:37:27;8.30;99.90
12291;DHT22;6208;48.956;9.076;2023-02-04T09:40:15;8.30;99.90
12291;DHT22;6208;48.956;9.076;2023-02-04T09:43:02;8.20;99.90
12291;DHT22;6208;48.956;9.076;2023-02-04T09:45:47;8.20;99.90
12291;DHT22;6208;48.956;9.076;2023-02-04T09:48:32;8.40;99.90
12291;DHT22;6208;48.956;9.076;2023-02-04T09:51:19;8.20;99.90
12291;DHT22;6208;48.956;9.076;2023-02-04T09:54:11;8.20;98.30
12291;DHT22;6208;48.956;9.076;2023-02-04T09:56:56;8.00;97.70
12291;DHT22;6208;48.956;9.076;2023-02-04T09:59:43;8.10;97.90
12291;DHT22;6208;48.956;9.076;2023-02-04T10:02:28;8.00;98.10
12291;DHT22;6208;48.956;9.076;2023-02-04T10:05:14;8.10;98.70
12291;DHT22;6208;48.956;9.076;2023-02-04T10:07:59;8.30;99.00
12291;DHT22;6208;48.956;9.076;2023-02-04T10:10:44;8.50;99.50
12291;DHT22;6208;48.956;9.076;2023-02-04T10:13:36;8.50;97.50
12291;DHT22;6208;48.956;9.076;2023-02-04T10:16:30;8.60;98.50
12291;DHT22;6208;48.956;9.076;2023-02-04T10:19:15;8.80;98.20
12291;DHT22;6208;48.956;9.076;2023-02-04T10:21:59;8.70;97.40
12291;DHT22;6208;48.956;9.076;2023-02-04T10:24:43;8.80;96.10
12291;DHT22;6208;48.956;9.076;2023-02-04T10:27:27;8.70;96.60
12291;DHT22;6208;48.956;9.076;2023-02-04T10:30:22;8.50;95.30
12291;DHT22;6208;48.956;9.076;2023-02-04T10:33:20;8.60;94.80
12291;DHT22;6208;48.956;9.076;2023-02-04T10:36:05;8.50;94.80
12291;DHT22;6208;48.956;9.076;2023-02-04T10:39:04;8.30;94.30
12291;DHT22;6208;48.956;9.076;2023-02-04T10:41:51;8.10;94.30
12291;DHT22;6208;48.956;9.076;2023-02-04T10:44:36;8.50;94.30
12291;DHT22;6208;48.956;9.076;2023-02-04T10:47:24;8.60;94.40
12291;DHT22;6208;48.956;9.076;2023-02-04T10:50:21;8.40;93.60
12291;DHT22;6208;48.956;9.076;2023-02-04T10:53:09;8.40;94.40
12291;DHT22;6208;48.956;9.076;2023-02-04T10:56:16;8.60;94.60
12291;DHT22;6208;48.956;9.076;2023-02-04T10:59:00;8.70;93.50
12291;DHT22;6208;48.956;9.076;2023-02-04T11:01:44;8.90;93.80
12291;DHT22;6208;48.956;9.076;2023-02-04T11:04:28;8.90;94.00
12291;DHT22;6208;48.956;9.076;2023-02-04T11:07:12;9.10;93.50
12291;DHT22;6208;48.956;9.076;2023-02-04T11:09:56;9.40;93.50
12291;DHT22;6208;48.956;9.076;2023-02-04T11:13:02;9.00;93.80
12291;DHT22;6208;48.956;9.076;2023-02-04T11:19:10;9.20;94.70
12291;DHT22;6208;48.956;9.076;2023-02-04T11:22:18;9.20;93.30
12291;DHT22;6208;48.956;9.076;2023-02-04T11:25:34;9.20;93.40
12291;DHT22;6208;48.956;9.076;2023-02-04T11:28:25;9.20;92.70
12291;DHT22;6208;48.956;9.076;2023-02-04T11:39:48;9.20;93.30
12291;DHT22;6208;48.956;9.076;2023-02-04T11:42:41;9.20;92.70
12291;DHT22;6208;48.956;9.076;2023-02-04T11:45:29;9.20;92.70
12291;DHT22;6208;48.956;9.076;2023-02-04T11:48:19;9.10;93.30
12291;DHT22;6208;48.956;9.076;2023-02-04T11:51:14;9.20;93.60
12291;DHT22;6208;48.956;9.076;2023-02-04T11:53:59;9.10;93.60
12291;DHT22;6208;48.956;9.076;2023-02-04T11:56:47;9.10;92.30
12291;DHT22;6208;48.956;9.076;2023-02-04T11:59:31;9.10;92.60
12291;DHT22;6208;48.956;9.076;2023-02-04T12:02:19;9.10;93.10
12291;DHT22;6208;48.956;9.076;2023-02-04T12:05:15;9.00;93.30
12291;DHT22;6208;48.956;9.076;2023-02-04T12:08:29;9.00;92.90
12291;DHT22;6208;48.956;9.076;2023-02-04T12:11:27;9.00;92.90
12291;DHT22;6208;48.956;9.076;2023-02-04T12:14:16;9.00;92.80
12291;DHT22;6208;48.956;9.076;2023-02-04T12:17:15;9.00;93.30
12291;DHT22;6208;48.956;9.076;2023-02-04T12:20:00;9.00;93.30
12291;DHT22;6208;48.956;9.076;2023-02-04T12:22:44;8.70;94.10
12291;DHT22;6208;48.956;9.076;2023-02-04T12:25:28;8.90;94.80
12291;DHT22;6208;48.956;9.076;2023-02-04T12:28:13;9.10;94.80
12291;DHT22;6208;48.956;9.076;2023-02-04T12:30:57;9.20;94.10
12291;DHT22;6208;48.956;9.076;2023-02-04T12:33:41;9.40;93.50
12291;DHT22;6208;48.956;9.076;2023-02-04T12:36:25;9.30;93.00
12291;DHT22;6208;48.956;9.076;2023-02-04T12:39:10;9.40;93.10
12291;DHT22;6208;48.956;9.076;2023-02-04T12:41:54;9.50;94.50
12291;DHT22;6208;48.956;9.076;2023-02-04T12:44:38;9.20;93.50
12291;DHT22;6208;48.956;9.076;2023-02-04T12:47:23;9.20;93.30
12291;DHT22;6208;48.956;9.076;2023-02-04T12:50:09;9.20;93.70
12291;DHT22;6208;48.956;9.076;2023-02-04T12:52:58;9.30;93.70
12291;DHT22;6208;48.956;9.076;2023-02-04T12:55:43;9.20;92.90
12291;DHT22;6208;48.956;9.076;2023-02-04T12:58:27;9.10;93.00
12291;DHT22;6208;48.956;9.076;2023-02-04T13:01:11;8.80;93.50
12291;DHT22;6208;48.956;9.076;2023-02-04T13:03:55;8.60;94.20
12291;DHT22;6208;48.956;9.076;2023-02-04T13:06:41;8.60;95.80
12291;DHT22;6208;48.956;9.076;2023-02-04T13:09:25;8.70;94.70
12291;DHT22;6208;48.956;9.076;2023-02-04T13:12:09;8.70;94.10
12291;DHT22;6208;48.956;9.076;2023-02-04T13:14:56;8.80;94.00
12291;DHT22;6208;48.956;9.076;2023-02-04T13:17:41;8.70;92.80
12291;DHT22;6208;48.956;9.076;2023-02-04T13:20:26;8.60;93.20
12291;DHT22;6208;48.956;9.076;2023-02-04T13:23:10;8.70;93.00
12291;DHT22;6208;48.956;9.076;2023-02-04T13:25:54;8.80;93.60
12291;DHT22;6208;48.956;9.076;2023-02-04T13:28:38;9.80;94.00
12291;DHT22;6208;48.956;9.076;2023-02-04T13:31:22;8.60;93.20
12291;DHT22;6208;48.956;9.076;2023-02-04T13:34:06;8.50;93.50
12291;DHT22;6208;48.956;9.076;2023-02-04T13:36:50;8.60;93.50
12291;DHT22;6208;48.956;9.076;2023-02-04T13:39:34;8.70;93.20
12291;DHT22;6208;48.956;9.076;2023-02-04T13:42:18;8.90;92.80
12291;DHT22;6208;48.956;9.076;2023-02-04T13:45:03;9.40;92.80
12291;DHT22;6208;48.956;9.076;2023-02-04T13:47:48;9.30;90.80
12291;DHT22;6208;48.956;9.076;2023-02-04T13:50:32;9.50;91.50
12291;DHT22;6208;48.956;9.076;2023-02-04T13:53:16;10.00;88.40
12291;DHT22;6208;48.956;9.076;2023-02-04T13:56:00;10.00;86.70
12291;DHT22;6208;48.956;9.076;2023-02-04T13:58:44;10.50;86.10
12291;DHT22;6208;48.956;9.076;2023-02-04T14:01:29;10.40;80.60
12291;DHT22;6208;48.956;9.076;2023-02-04T14:04:13;10.60;78.90
12291;DHT22;6208;48.956;9.076;2023-02-04T14:06:57;10.40;77.00
12291;DHT22;6208;48.956;9.076;2023-02-04T14:09:41;10.40;73.60
12291;DHT22;6208;48.956;9.076;2023-02-04T14:12:25;10.80;73.00
12291;DHT22;6208;48.956;9.076;2023-02-04T14:15:09;10.70;68.10
12291;DHT22;6208;48.956;9.076;2023-02-04T14:17:53;10.80;64.90
12291;DHT22;6208;48.956;9.076;2023-02-04T14:20:38;10.80;66.60
12291;DHT22;6208;48.956;9.076;2023-02-04T14:23:22;11.30;65.50
12291;DHT22;6208;48.956;9.076;2023-02-04T14:26:06;11.30;66.00
12291;DHT22;6208;48.956;9.076;2023-02-04T14:28:50;11.60;65.80
12291;DHT22;6208;48.956;9.076;2023-02-04T14:31:34;12.10;66.30
12291;DHT22;6208;48.956;9.076;2023-02-04T14:34:20;11.10;68.10
12291;DHT22;6208;48.956;9.076;2023-02-04T14:37:04;11.00;68.40
12291;DHT22;6208;48.956;9.076;2023-02-04T14:39:49;11.50;70.20
12291;DHT22;6208;48.956;9.076;2023-02-04T14:42:33;11.20;69.90
12291;DHT22;6208;48.956;9.076;2023-02-04T14:45:19;11.00;69.10
12291;DHT22;6208;48.956;9.076;2023-02-04T14:48:03;11.30;69.20
12291;DHT22;6208;48.956;9.076;2023-02-04T14:50:48;10.70;69.10
12291;DHT22;6208;48.956;9.076;2023-02-04T14:53:32;10.60;71.40
12291;DHT22;6208;48.956;9.076;2023-02-04T14:56:16;10.40;73.00
12291;DHT22;6208;48.956;9.076;2023-02-04T14:59:01;10.20;73.70
12291;DHT22;6208;48.956;9.076;2023-02-04T15:01:46;10.00;73.80
12291;DHT22;6208;48.956;9.076;2023-02-04T15:04:30;9.80;76.10
12291;DHT22;6208;48.956;9.076;2023-02-04T15:07:14;8.10;76.10
12291;DHT22;6208;48.956;9.076;2023-02-04T15:09:58;9.10;79.00
12291;DHT22;6208;48.956;9.076;2023-02-04T15:12:43;9.90;80.50
12291;DHT22;6208;48.956;9.076;2023-02-04T15:15:26;9.00;81.70
12291;DHT22;6208;48.956;9.076;2023-02-04T15:18:11;8.90;84.00
12291;DHT22;6208;48.956;9.076;2023-02-04T15:20:55;9.00;84.20
12291;DHT22;6208;48.956;9.076;2023-02-04T15:23:39;8.90;84.80
12291;DHT22;6208;48.956;9.076;2023-02-04T15:26:28;8.80;85.60
12291;DHT22;6208;48.956;9.076;2023-02-04T15:29:12;9.50;89.50
12291;DHT22;6208;48.956;9.076;2023-02-04T15:31:56;8.50;88.20
12291;DHT22;6208;48.956;9.076;2023-02-04T15:34:41;8.70;87.70
12291;DHT22;6208;48.956;9.076;2023-02-04T15:37:25;8.70;88.10
12291;DHT22;6208;48.956;9.076;2023-02-04T15:40:10;8.90;88.40
12291;DHT22;6208;48.956;9.076;2023-02-04T15:42:54;8.70;88.80
12291;DHT22;6208;48.956;9.076;2023-02-04T15:45:39;8.70;89.10
12291;DHT22;6208;48.956;9.076;2023-02-04T15:48:26;8.60;90.00
12291;DHT22;6208;48.956;9.076;2023-02-04T15:51:11;8.60;90.50
12291;DHT22;6208;48.956;9.076;2023-02-04T15:53:55;8.50;91.20
12291;DHT22;6208;48.956;9.076;2023-02-04T15:56:39;8.00;92.60
12291;DHT22;6208;48.956;9.076;2023-02-04T15:59:23;8.50;93.70
12291;DHT22;6208;48.956;9.076;2023-02-04T16:02:08;8.70;94.70
12291;DHT22;6208;48.956;9.076;2023-02-04T16:04:54;7.60;95.10
12291;DHT22;6208;48.956;9.076;2023-02-04T16:07:38;7.60;95.40
12291;DHT22;6208;48.956;9.076;2023-02-04T16:10:22;8.20;95.60
12291;DHT22;6208;48.956;9.076;2023-02-04T16:13:07;7.90;95.10
12291;DHT22;6208;48.956;9.076;2023-02-04T16:15:51;7.70;95.30
12291;DHT22;6208;48.956;9.076;2023-02-04T16:18:35;8.70;96.30
12291;DHT22;6208;48.956;9.076;2023-02-04T16:21:19;7.70;96.50
12291;DHT22;6208;48.956;9.076;2023-02-04T16:24:03;7.60;95.90
12291;DHT22;6208;48.956;9.076;2023-02-04T16:26:47;7.50;96.60
12291;DHT22;6208;48.956;9.076;2023-02-04T16:29:32;8.00;97.40
12291;DHT22;6208;48.956;9.076;2023-02-04T16:32:16;7.40;96.70
12291;DHT22;6208;48.956;9.076;2023-02-04T16:35:00;7.30;97.30
12291;DHT22;6208;48.956;9.076;2023-02-04T16:37:47;7.50;97.70
12291;DHT22;6208;48.956;9.076;2023-02-04T16:40:31;7.70;96.50
12291;DHT22;6208;48.956;9.076;2023-02-04T16:43:15;8.20;96.50
12291;DHT22;6208;48.956;9.076;2023-02-04T16:45:59;8.70;95.70
12291;DHT22;6208;48.956;9.076;2023-02-04T16:48:44;8.10;96.20
12291;DHT22;6208;48.956;9.076;2023-02-04T16:51:28;8.00;96.00
12291;DHT22;6208;48.956;9.076;2023-02-04T16:54:12;7.80;96.90
12291;DHT22;6208;48.956;9.076;2023-02-04T16:56:57;7.60;97.30
12291;DHT22;6208;48.956;9.076;2023-02-04T16:59:43;7.60;97.40
12291;DHT22;6208;48.956;9.076;2023-02-04T17:02:27;7.70;97.40
12291;DHT22;6208;48.956;9.076;2023-02-04T17:05:11;7.20;97.90
12291;DHT22;6208;48.956;9.076;2023-02-04T17:07:56;7.50;97.80
12291;DHT22;6208;48.956;9.076;2023-02-04T17:10:41;7.60;97.90
12291;DHT22;6208;48.956;9.076;2023-02-04T17:13:44;8.30;98.20
12291;DHT22;6208;48.956;9.076;2023-02-04T17:16:29;7.80;98.10
12291;DHT22;6208;48.956;9.076;2023-02-04T17:19:14;6.70;98.20
12291;DHT22;6208;48.956;9.076;2023-02-04T17:22:00;7.20;98.50
12291;DHT22;6208;48.956;9.076;2023-02-04T17:24:44;7.20;98.30
12291;DHT22;6208;48.956;9.076;2023-02-04T17:27:28;7.20;97.30
12291;DHT22;6208;48.956;9.076;2023-02-04T17:30:13;7.50;97.10
12291;DHT22;6208;48.956;9.076;2023-02-04T17:33:00;7.10;97.30
12291;DHT22;6208;48.956;9.076;2023-02-04T17:35:44;6.90;98.00
12291;DHT22;6208;48.956;9.076;2023-02-04T17:38:28;7.10;98.10
12291;DHT22;6208;48.956;9.076;2023-02-04T17:41:12;6.70;99.90
12291;DHT22;6208;48.956;9.076;2023-02-04T17:43:56;6.90;99.90
12291;DHT22;6208;48.956;9.076;2023-02-04T17:46:42;7.20;99.70
12291;DHT22;6208;48.956;9.076;2023-02-04T17:49:26;7.00;99.00
12291;DHT22;6208;48.956;9.076;2023-02-04T17:52:10;7.00;99.60
12291;DHT22;6208;48.956;9.076;2023-02-04T17:54:54;6.90;99.90
12291;DHT22;6208;48.956;9.076;2023-02-04T17:57:39;6.60;99.90
12291;DHT22;6208;48.956;9.076;2023-02-04T18:00:26;6.60;99.90
12291;DHT22;6208;48.956;9.076;2023-02-04T18:03:21;6.60;98.60
12291;DHT22;6208;48.956;9.076;2023-02-04T18:06:23;6.70;98.80
12291;DHT22;6208;48.956;9.076;2023-02-04T18:09:14;6.90;99.90
12291;DHT22;6208;48.956;9.076;2023-02-04T18:12:01;6.80;99.10